Time;durP1;ratioP1;P1;durP2;ratioP2;P2;SDS_P1;SDS_P2;PMS_P1;PMS_P2;Temp;Humidity;BMP_temperature;BMP_pressure;BME280_temperature;BME280_humidity;BME280_pressure;Samples;Min_cycle;Max_cycle;Signal;HPM_P1;HPM_P2
2022/10/24 00:01:19;;;;;;;5.97;4.00;;;;;;;13.06;91.91;100368.63;1756800;81;20973;-73
2022/10/24 00:03:46;;;;;;;5.20;4.15;;;;;;;13.07;91.79;100364.58;1756725;81;21072;-73
2022/10/24 00:06:15;;;;;;;8.78;4.00;;;;;;;13.05;91.67;100363.83;1756860;81;21089;-72
2022/10/24 00:08:43;;;;;;;7.92;3.62;;;;;;;13.04;91.61;100362.10;1756687;81;21966;-72
2022/10/24 00:11:16;;;;;;;6.15;3.72;;;;;;;13.03;91.56;100371.41;1756784;81;21410;-72
2022/10/24 00:13:43;;;;;;;5.37;3.70;;;;;;;13.02;91.46;100365.73;1756668;81;21012;-72
2022/10/24 00:16:12;;;;;;;7.37;4.12;;;;;;;12.99;91.41;100361.93;1756956;81;21946;-72
2022/10/24 00:18:40;;;;;;;6.20;3.70;;;;;;;12.95;91.35;100359.91;1756694;81;21020;-73
2022/10/24 00:21:08;;;;;;;8.78;4.10;;;;;;;12.92;91.35;100359.59;1756761;81;21137;-72
2022/10/24 00:23:36;;;;;;;7.47;4.30;;;;;;;12.90;91.33;100355.33;1757047;81;21450;-72
2022/10/24 00:26:04;;;;;;;8.43;4.10;;;;;;;12.88;91.34;100354.08;1756840;81;21009;-72
2022/10/24 00:28:34;;;;;;;6.87;4.37;;;;;;;12.87;91.38;100355.48;1757000;81;21628;-72
2022/10/24 00:31:02;;;;;;;;;;;;;;;12.86;91.32;100360.36;1759604;81;21061;-73
2022/10/24 00:33:30;;;;;;;6.80;4.55;;;;;;;12.82;91.37;100358.31;1757135;81;21871;-74
2022/10/24 00:35:57;;;;;;;9.35;4.58;;;;;;;12.79;91.37;100357.62;1756939;81;21024;-73
2022/10/24 00:38:24;;;;;;;7.60;4.60;;;;;;;12.74;91.34;100348.61;1756798;81;21498;-72
2022/10/24 00:40:52;;;;;;;7.47;5.05;;;;;;;12.69;91.43;100348.85;1742529;81;21029;-73
2022/10/24 00:43:24;;;;;;;7.12;4.95;;;;;;;12.65;91.56;100334.59;1735986;81;21061;-73
2022/10/24 00:46:00;;;;;;;6.08;4.25;;;;;;;12.62;91.69;100332.95;1735724;82;21924;-72
2022/10/24 00:48:37;;;;;;;7.22;4.30;;;;;;;12.60;91.99;100318.17;1734548;82;21029;-72
2022/10/24 00:51:13;;;;;;;6.83;4.35;;;;;;;12.57;92.35;100311.28;1735931;81;21046;-73
2022/10/24 00:53:45;;;;;;;7.60;4.60;;;;;;;12.56;92.47;100313.53;1735764;82;21448;-73
2022/10/24 00:56:16;;;;;;;7.53;4.58;;;;;;;12.55;92.64;100303.91;1735877;81;20978;-73
2022/10/24 00:58:45;;;;;;;6.78;4.45;;;;;;;12.55;92.98;100288.14;1735885;81;21293;-73
2022/10/24 01:01:13;;;;;;;5.85;4.00;;;;;;;12.54;93.12;100285.13;1735643;82;20930;-72
2022/10/24 01:03:40;;;;;;;7.42;4.58;;;;;;;12.48;92.98;100282.33;1735813;82;20941;-72
2022/10/24 01:06:35;;;;;;;7.97;4.45;;;;;;;12.42;93.19;100269.48;1736096;82;21002;-73
2022/10/24 01:09:55;;;;;;;7.15;4.50;;;;;;;12.39;93.37;100260.42;1735352;82;21081;-73
2022/10/24 01:12:55;;;;;;;6.20;3.90;;;;;;;12.37;93.54;100264.89;1736081;82;21935;-73
2022/10/24 01:15:40;;;;;;;8.70;4.35;;;;;;;12.34;93.86;100262.41;1735946;82;21456;-73
2022/10/24 01:18:18;;;;;;;6.22;4.30;;;;;;;12.36;94.09;100257.95;1736010;82;21013;-73
2022/10/24 01:21:08;;;;;;;9.60;4.90;;;;;;;12.35;94.18;100257.53;1735706;81;21033;-73
2022/10/24 01:23:56;;;;;;;;;;;;;;;12.33;94.26;100259.38;1738424;82;21013;-73
2022/10/24 01:26:37;;;;;;;5.78;3.87;;;;;;;12.34;94.57;100258.47;1735841;82;21134;-73
2022/10/24 01:29:33;;;;;;;10.43;4.60;;;;;;;12.33;94.52;100259.84;1736117;82;21002;-73
2022/10/24 01:32:30;;;;;;;6.65;4.10;;;;;;;12.32;94.69;100267.34;1735757;82;21010;-73
2022/10/24 01:35:18;;;;;;;7.17;4.45;;;;;;;12.31;94.75;100272.23;1736272;81;21495;-73
2022/10/24 01:38:02;;;;;;;10.35;4.70;;;;;;;12.33;94.99;100262.47;1735849;81;21025;-73
2022/10/24 01:40:37;;;;;;;7.00;4.30;;;;;;;12.30;94.98;100265.24;1741833;82;21301;-73
2022/10/24 01:43:12;;;;;;;6.75;4.12;;;;;;;12.27;95.13;100274.12;1751342;82;21419;-73
2022/10/24 01:45:43;;;;;;;7.78;4.50;;;;;;;12.26;95.22;100271.11;1751577;82;21013;-73
2022/10/24 01:48:15;;;;;;;7.55;4.60;;;;;;;12.25;95.30;100265.48;1751572;82;21434;-73
2022/10/24 01:50:46;;;;;;;6.22;4.08;;;;;;;12.22;95.29;100259.90;1751371;82;21462;-73
2022/10/24 01:53:15;;;;;;;8.15;4.40;;;;;;;12.21;95.26;100254.23;1751718;82;22079;-73
2022/10/24 01:55:44;;;;;;;6.33;4.42;;;;;;;12.18;95.38;100260.09;1730181;82;21407;-74
2022/10/24 01:58:11;;;;;;;6.50;4.67;;;;;;;12.15;95.47;100270.28;1730499;82;21012;-73
2022/10/24 02:00:39;;;;;;;8.38;4.33;;;;;;;12.14;95.66;100267.72;1751377;82;21468;-73
2022/10/24 02:03:28;;;;;;;7.78;4.20;;;;;;;12.13;95.76;100271.27;1751363;82;21017;-73
2022/10/24 02:06:01;;;;;;;6.35;4.37;;;;;;;12.11;95.81;100275.30;1750294;81;21112;-73
2022/10/24 02:08:33;;;;;;;7.67;4.33;;;;;;;12.13;96.08;100271.27;1751418;81;21037;-73
2022/10/24 02:11:04;;;;;;;7.25;4.72;;;;;;;12.14;96.14;100278.22;1751464;82;20981;-73
2022/10/24 02:13:44;;;;;;;6.75;4.45;;;;;;;12.15;96.21;100277.32;1751335;82;21012;-73
2022/10/24 02:16:14;;;;;;;6.10;4.35;;;;;;;12.17;96.18;100271.55;1751404;82;21474;-73
2022/10/24 02:18:42;;;;;;;6.47;4.78;;;;;;;12.16;96.23;100260.63;1730885;82;21060;-73
2022/10/24 02:21:43;;;;;;;7.37;4.62;;;;;;;12.18;96.18;100262.73;1751256;82;21525;-73
2022/10/24 02:24:18;;;;;;;6.55;4.75;;;;;;;12.13;96.03;100262.08;1751729;82;20902;-73
2022/10/24 02:27:10;;;;;;;9.13;4.40;;;;;;;12.10;96.18;100261.75;1751416;82;21542;-73
2022/10/24 02:29:51;;;;;;;6.78;4.42;;;;;;;12.06;95.97;100274.66;1751866;82;21075;-73
2022/10/24 02:32:24;;;;;;;7.20;4.37;;;;;;;11.99;95.99;100256.14;1751476;82;21134;-73
2022/10/24 02:34:52;;;;;;;6.00;3.87;;;;;;;11.92;95.65;100258.20;1751613;81;21013;-73
2022/10/24 02:37:21;;;;;;;9.00;5.00;;;;;;;11.84;95.49;100266.38;1751303;81;21017;-73
2022/10/24 02:39:49;;;;;;;7.22;4.78;;;;;;;11.78;95.65;100277.16;1730638;82;21523;-73
2022/10/24 02:42:20;;;;;;;7.97;5.20;;;;;;;11.77;96.00;100261.46;1751280;82;21477;-73
2022/10/24 02:44:48;;;;;;;8.33;4.58;;;;;;;11.74;96.15;100248.00;1751665;81;22837;-73
2022/10/24 02:47:18;;;;;;;7.53;5.03;;;;;;;11.72;96.19;100250.30;1751347;82;21001;-72
2022/10/24 02:49:45;;;;;;;6.67;5.00;;;;;;;11.70;96.45;100251.70;1751676;82;21630;-73
2022/10/24 02:52:14;;;;;;;11.08;5.53;;;;;;;11.70;96.69;100246.91;1751675;82;21457;-73
2022/10/24 02:54:41;;;;;;;8.80;5.53;;;;;;;11.69;96.73;100248.66;1751579;82;21013;-73
2022/10/24 02:57:08;;;;;;;6.08;5.05;;;;;;;11.69;96.83;100257.00;1751436;82;21958;-72
2022/10/24 02:59:35;;;;;;;6.60;4.90;;;;;;;11.68;96.89;100250.91;1751461;82;21008;-73
2022/10/24 03:02:02;;;;;;;8.30;5.60;;;;;;;11.68;97.06;100248.75;1751228;82;21439;-73
2022/10/24 03:04:30;;;;;;;8.10;4.80;;;;;;;11.66;97.01;100244.86;1751539;82;21068;-73
2022/10/24 03:06:57;;;;;;;8.43;5.20;;;;;;;11.64;96.75;100251.09;1751370;82;22117;-73
2022/10/24 03:09:25;;;;;;;9.43;5.10;;;;;;;11.59;96.82;100243.45;1751639;82;21114;-73
2022/10/24 03:11:52;;;;;;;9.73;5.78;;;;;;;11.59;97.10;100235.10;1751288;82;21024;-72
2022/10/24 03:14:19;;;;;;;6.90;4.87;;;;;;;11.59;97.15;100239.05;1751543;82;21477;-72
2022/10/24 03:16:46;;;;;;;12.28;5.50;;;;;;;11.58;97.19;100230.78;1751369;82;21550;-72
2022/10/24 03:19:13;;;;;;;7.05;5.25;;;;;;;11.58;97.28;100226.84;1751606;82;21252;-72
2022/10/24 03:21:41;;;;;;;9.80;5.72;;;;;;;11.58;97.34;100239.09;1751232;82;21204;-73
2022/10/24 03:24:08;;;;;;;6.15;5.08;;;;;;;11.59;97.49;100240.82;1751684;82;21075;-72
2022/10/24 03:26:35;;;;;;;8.30;5.33;;;;;;;11.60;97.59;100249.92;1751246;82;21021;-73
2022/10/24 03:29:03;;;;;;;7.00;5.10;;;;;;;11.61;97.66;100241.58;1751639;82;21002;-72
2022/10/24 03:31:31;;;;;;;8.95;5.10;;;;;;;11.61;97.67;100242.89;1751706;82;21381;-72
2022/10/24 03:33:58;;;;;;;6.90;5.58;;;;;;;11.63;97.82;100238.44;1751652;82;21116;-72
2022/10/24 03:36:26;;;;;;;7.72;5.40;;;;;;;11.64;97.91;100234.91;1751272;82;21499;-72
2022/10/24 03:38:53;;;;;;;7.83;5.60;;;;;;;11.64;97.82;100227.03;1751596;82;21279;-73
2022/10/24 03:41:21;;;;;;;6.80;5.58;;;;;;;11.63;97.72;100226.63;1751243;82;20986;-72
2022/10/24 03:43:49;;;;;;;6.67;5.10;;;;;;;11.63;97.72;100217.44;1751303;82;21544;-73
2022/10/24 03:46:16;;;;;;;6.72;4.90;;;;;;;11.61;97.66;100217.95;1751213;82;21502;-72
2022/10/24 03:48:44;;;;;;;7.03;5.35;;;;;;;11.60;97.70;100217.58;1751292;82;21457;-72
2022/10/24 03:51:10;;;;;;;5.95;4.47;;;;;;;11.60;97.70;100218.89;1751338;82;20998;-73
2022/10/24 03:53:38;;;;;;;6.67;5.25;;;;;;;11.59;97.72;100218.50;1751342;82;21517;-72
2022/10/24 03:56:06;;;;;;;7.12;5.03;;;;;;;11.59;97.81;100218.50;1751218;82;21295;-72
2022/10/24 03:58:33;;;;;;;6.97;5.30;;;;;;;11.57;97.83;100219.87;1751318;82;21132;-72
2022/10/24 04:01:00;;;;;;;9.00;4.60;;;;;;;11.56;97.73;100222.12;1751178;82;21020;-72
2022/10/24 04:03:27;;;;;;;8.05;4.65;;;;;;;11.54;97.64;100223.95;1751266;82;21012;-73
2022/10/24 04:05:55;;;;;;;7.90;4.92;;;;;;;11.50;97.59;100213.20;1751283;82;21461;-72
2022/10/24 04:08:23;;;;;;;6.10;4.53;;;;;;;11.47;97.72;100209.38;1751279;82;20993;-72
2022/10/24 04:10:50;;;;;;;5.95;4.35;;;;;;;11.42;97.28;100214.00;1751621;82;21112;-73
2022/10/24 04:13:17;;;;;;;5.45;4.33;;;;;;;11.37;97.20;100217.28;1751138;82;21546;-72
2022/10/24 04:15:45;;;;;;;8.43;5.00;;;;;;;11.30;96.86;100223.23;1751589;82;20997;-72
2022/10/24 04:18:13;;;;;;;5.92;3.87;;;;;;;11.26;97.04;100219.51;1751337;82;20978;-72
2022/10/24 04:20:40;;;;;;;7.00;4.62;;;;;;;11.22;97.11;100218.77;1751593;82;21501;-72
2022/10/24 04:23:07;;;;;;;6.15;4.83;;;;;;;11.15;96.78;100214.25;1751189;82;21124;-73
2022/10/24 04:25:34;;;;;;;4.97;4.35;;;;;;;11.08;96.77;100214.10;1751512;82;21432;-73
2022/10/24 04:28:03;;;;;;;7.22;4.47;;;;;;;11.05;96.92;100212.08;1751318;82;21469;-72
2022/10/24 04:30:30;;;;;;;5.55;3.67;;;;;;;11.00;96.52;100215.34;1751560;82;21053;-73
2022/10/24 04:32:57;;;;;;;8.45;4.55;;;;;;;10.91;96.61;100229.23;1751325;82;21294;-72
2022/10/24 04:35:25;;;;;;;5.17;4.10;;;;;;;10.87;96.86;100240.77;1751489;82;22142;-77
2022/10/24 04:37:53;;;;;;;7.78;4.20;;;;;;;10.84;97.08;100246.61;1751544;82;21447;-72
2022/10/24 04:40:20;;;;;;;7.10;4.62;;;;;;;10.78;96.58;100245.09;1751513;82;21036;-72
2022/10/24 04:42:47;;;;;;;6.62;4.28;;;;;;;10.71;97.04;100251.02;1736512;82;21009;-72
2022/10/24 04:45:15;;;;;;;6.12;4.75;;;;;;;10.69;96.88;100248.06;1735970;82;21483;-73
2022/10/24 04:47:43;;;;;;;6.37;4.85;;;;;;;10.62;96.89;100247.47;1735570;82;21547;-73
2022/10/24 04:50:10;;;;;;;6.62;5.30;;;;;;;10.61;97.08;100245.73;1736046;81;21452;-73
2022/10/24 04:52:38;;;;;;;7.30;5.00;;;;;;;10.56;96.94;100253.39;1735711;82;21507;-72
2022/10/24 04:55:05;;;;;;;7.10;5.15;;;;;;;10.46;96.58;100255.06;1736059;82;20910;-72
2022/10/24 04:57:32;;;;;;;6.40;5.00;;;;;;;10.43;97.31;100249.10;1735804;81;20994;-73
2022/10/24 05:00:00;;;;;;;6.67;5.40;;;;;;;10.43;97.74;100249.95;1735965;82;21141;-72
2022/10/24 05:02:27;;;;;;;6.85;5.10;;;;;;;10.42;97.79;100248.25;1735501;82;21567;-72
2022/10/24 05:04:54;;;;;;;9.03;5.50;;;;;;;10.37;97.17;100248.88;1735942;82;21470;-72
2022/10/24 05:07:22;;;;;;;9.48;4.83;;;;;;;10.35;97.87;100253.31;1735751;82;21033;-72
2022/10/24 05:09:50;;;;;;;6.17;5.10;;;;;;;10.34;97.73;100248.16;1735783;82;21036;-72
2022/10/24 05:12:17;;;;;;;7.20;5.05;;;;;;;10.27;97.48;100255.38;1735843;82;21177;-73
2022/10/24 05:14:46;;;;;;;9.90;5.10;;;;;;;10.24;97.59;100258.93;1735848;81;20999;-73
2022/10/24 05:17:14;;;;;;;9.70;4.37;;;;;;;10.22;97.39;100259.90;1736074;82;21038;-72
2022/10/24 05:19:41;;;;;;;8.87;4.73;;;;;;;10.17;97.39;100260.09;1735941;82;21022;-72
2022/10/24 05:22:08;;;;;;;8.40;5.20;;;;;;;10.15;97.38;100258.44;1736094;82;21500;-72
2022/10/24 05:24:35;;;;;;;6.60;5.03;;;;;;;10.12;97.75;100251.55;1735823;82;21102;-72
2022/10/24 05:27:02;;;;;;;5.73;4.60;;;;;;;10.14;97.90;100260.64;1736103;82;21001;-72
2022/10/24 05:29:31;;;;;;;6.78;5.47;;;;;;;10.12;97.82;100257.25;1735826;82;21026;-73
2022/10/24 05:31:59;;;;;;;6.72;4.65;;;;;;;10.13;97.95;100264.19;1736086;82;21021;-72
2022/10/24 05:34:26;;;;;;;8.70;5.70;;;;;;;10.07;97.67;100252.17;1735829;82;21025;-73
2022/10/24 05:36:54;;;;;;;7.13;5.27;;;;;;;10.07;98.03;100249.55;1736103;81;21182;-72
2022/10/24 05:39:21;;;;;;;7.30;5.53;;;;;;;10.11;98.78;100252.44;1735832;82;21025;-72
2022/10/24 05:41:49;;;;;;;8.23;5.50;;;;;;;10.12;98.77;100252.86;1733956;81;21438;-72
2022/10/24 05:44:16;;;;;;;7.27;5.67;;;;;;;10.15;98.86;100247.97;1730878;82;21012;-72
2022/10/24 05:46:43;;;;;;;8.13;5.47;;;;;;;10.14;99.01;100251.05;1730821;82;21071;-72
2022/10/24 05:49:13;;;;;;;7.57;4.90;;;;;;;10.18;99.36;100253.08;1730844;82;21223;-73
2022/10/24 05:51:40;;;;;;;9.68;5.55;;;;;;;10.18;98.97;100247.38;1730867;82;20966;-72
2022/10/24 05:54:07;;;;;;;7.97;4.90;;;;;;;10.17;99.02;100249.62;1730754;82;21064;-73
2022/10/24 05:56:35;;;;;;;9.13;5.67;;;;;;;10.18;99.22;100244.77;1730827;82;21030;-72
2022/10/24 05:59:03;;;;;;;11.37;5.20;;;;;;;10.18;99.07;100246.08;1730797;82;21001;-72
2022/10/24 06:01:31;;;;;;;6.37;5.07;;;;;;;10.20;99.36;100235.09;1730718;82;21134;-72
2022/10/24 06:03:58;;;;;;;6.20;5.60;;;;;;;10.20;99.37;100240.80;1730862;82;20898;-72
2022/10/24 06:06:26;;;;;;;10.87;5.33;;;;;;;10.22;99.45;100241.56;1730842;82;21505;-74
2022/10/24 06:08:54;;;;;;;7.67;5.22;;;;;;;10.25;99.44;100240.13;1730767;82;21001;-72
2022/10/24 06:11:21;;;;;;;6.72;5.17;;;;;;;10.26;99.55;100246.64;1731061;82;21347;-72
2022/10/24 06:13:48;;;;;;;6.95;5.05;;;;;;;10.29;99.60;100250.09;1730730;82;21526;-72
2022/10/24 06:16:16;;;;;;;7.20;5.10;;;;;;;10.29;99.29;100250.09;1731125;82;20979;-72
2022/10/24 06:18:43;;;;;;;8.33;5.08;;;;;;;10.32;99.52;100249.51;1730825;82;21008;-72
2022/10/24 06:21:14;;;;;;;9.43;5.65;;;;;;;10.35;99.68;100238.91;1730921;82;21024;-73
2022/10/24 06:23:42;;;;;;;9.03;5.77;;;;;;;10.39;100.00;100242.25;1730869;82;21024;-72
2022/10/24 06:26:10;;;;;;;9.83;5.60;;;;;;;10.41;99.91;100241.28;1730968;82;21475;-73
2022/10/24 06:28:38;;;;;;;10.05;6.72;;;;;;;10.45;100.00;100250.75;1730785;82;21008;-72
2022/10/24 06:31:07;;;;;;;9.75;6.10;;;;;;;10.46;100.00;100255.06;1730712;82;21599;-72
2022/10/24 06:33:34;;;;;;;8.05;5.95;;;;;;;10.53;100.00;100256.12;1730763;82;22187;-76
2022/10/24 06:36:04;;;;;;;8.95;5.80;;;;;;;10.59;100.00;100261.16;1730852;82;21005;-72
2022/10/24 06:38:32;;;;;;;7.40;5.92;;;;;;;10.62;100.00;100258.41;1731154;82;21158;-72
2022/10/24 06:41:08;;;;;;;10.55;5.97;;;;;;;10.66;100.00;100256.05;1730656;82;21037;-73
2022/10/24 06:43:37;;;;;;;6.75;5.92;;;;;;;10.70;100.00;100257.66;1750898;82;21075;-73
2022/10/24 06:46:10;;;;;;;8.60;5.83;;;;;;;10.74;100.00;100264.93;1751278;82;21071;-73
2022/10/24 06:48:37;;;;;;;11.30;6.33;;;;;;;10.77;100.00;100271.36;1751417;82;21021;-73
2022/10/24 06:51:05;;;;;;;7.28;5.65;;;;;;;10.81;100.00;100269.88;1751232;82;21951;-72
2022/10/24 06:53:33;;;;;;;6.10;4.97;;;;;;;10.86;100.00;100277.09;1751215;82;20902;-72
2022/10/24 06:56:05;;;;;;;7.40;5.10;;;;;;;10.91;100.00;100284.30;1751241;82;21001;-72
2022/10/24 06:58:34;;;;;;;7.28;4.78;;;;;;;11.01;100.00;100284.80;1751290;82;20978;-72
2022/10/24 07:01:09;;;;;;;6.00;5.17;;;;;;;11.15;100.00;100281.61;1751483;82;21513;-72
2022/10/24 07:03:37;;;;;;;7.67;5.20;;;;;;;11.26;100.00;100283.79;1750897;81;21139;-72
2022/10/24 07:06:10;;;;;;;7.60;4.55;;;;;;;11.35;100.00;100280.30;1751272;82;21020;-72
2022/10/24 07:08:37;;;;;;;8.88;4.72;;;;;;;11.40;100.00;100273.56;1751237;82;21064;-72
2022/10/24 07:11:04;;;;;;;10.20;5.65;;;;;;;11.46;100.00;100269.83;1751292;82;21471;-72
2022/10/24 07:13:31;;;;;;;12.25;5.83;;;;;;;11.52;100.00;100281.36;1751255;82;21028;-73
2022/10/24 07:15:59;;;;;;;6.00;4.87;;;;;;;11.55;100.00;100269.41;1751277;82;21950;-72
2022/10/24 07:18:27;;;;;;;6.50;5.03;;;;;;;11.55;100.00;100266.79;1751435;82;21632;-72
2022/10/24 07:20:54;;;;;;;7.70;4.90;;;;;;;11.60;100.00;100271.39;1751256;82;20929;-72
2022/10/24 07:23:21;;;;;;;6.33;5.20;;;;;;;11.66;100.00;100271.58;1751610;82;21065;-72
2022/10/24 07:25:49;;;;;;;9.25;4.78;;;;;;;11.70;100.00;100268.77;1751467;82;20986;-72
2022/10/24 07:28:16;;;;;;;6.03;4.78;;;;;;;11.78;100.00;100269.75;1751596;82;21812;-72
2022/10/24 07:30:44;;;;;;;8.35;5.37;;;;;;;11.83;100.00;100269.94;1751249;82;21017;-72
2022/10/24 07:33:15;;;;;;;6.55;4.75;;;;;;;11.90;100.00;100274.48;1751533;82;20906;-73
2022/10/24 07:35:43;;;;;;;6.53;4.85;;;;;;;11.94;100.00;100270.78;1751497;82;21507;-72
2022/10/24 07:38:10;;;;;;;4.78;3.85;;;;;;;12.00;100.00;100272.31;1751347;82;21036;-73
2022/10/24 07:40:37;;;;;;;8.45;4.17;;;;;;;12.10;100.00;100274.89;1751603;82;21109;-73
2022/10/24 07:43:04;;;;;;;7.78;4.95;;;;;;;12.21;100.00;100273.94;1738362;81;21024;-72
2022/10/24 07:45:31;;;;;;;6.78;3.98;;;;;;;12.33;100.00;100276.92;1730717;82;20969;-72
2022/10/24 07:47:59;;;;;;;5.15;4.20;;;;;;;12.42;100.00;100275.20;1730814;82;21466;-72
2022/10/24 07:50:26;;;;;;;8.25;4.40;;;;;;;12.50;100.00;100275.23;1730688;82;21020;-72
2022/10/24 07:52:54;;;;;;;7.72;4.85;;;;;;;12.58;100.00;100274.00;1730818;82;21966;-72
2022/10/24 07:55:22;;;;;;;10.40;5.35;;;;;;;12.66;100.00;100273.17;1730697;82;21016;-73
2022/10/24 07:57:49;;;;;;;6.83;4.85;;;;;;;12.73;100.00;100272.81;1730793;82;21265;-72
2022/10/24 08:00:17;;;;;;;6.45;4.65;;;;;;;12.80;100.00;100273.83;1730779;82;21032;-72
2022/10/24 08:02:44;;;;;;;6.37;4.67;;;;;;;12.89;100.00;100274.72;1730749;82;21497;-72
2022/10/24 08:05:12;;;;;;;7.17;4.60;;;;;;;12.96;99.89;100281.37;1730778;82;21546;-73
2022/10/24 08:07:39;;;;;;;8.80;5.00;;;;;;;13.04;99.66;100281.84;1730635;82;20997;-72
2022/10/24 08:10:09;;;;;;;5.92;4.25;;;;;;;13.14;99.66;100279.16;1730800;82;21048;-72
2022/10/24 08:12:35;;;;;;;6.07;4.10;;;;;;;13.24;99.51;100274.27;1731004;82;21549;-72
2022/10/24 08:15:03;;;;;;;9.35;5.40;;;;;;;13.33;99.39;100268.60;1730966;82;20973;-72
2022/10/24 08:17:30;;;;;;;15.78;10.28;;;;;;;13.43;99.22;100264.17;1730697;82;21300;-72
2022/10/24 08:19:58;;;;;;;11.85;8.58;;;;;;;13.51;99.03;100266.80;1731050;82;20997;-72
2022/10/24 08:22:25;;;;;;;10.00;7.37;;;;;;;13.60;98.94;100263.69;1730732;82;20997;-73
2022/10/24 08:24:52;;;;;;;8.90;6.03;;;;;;;13.70;98.67;100264.55;1731071;82;20966;-77
2022/10/24 08:27:19;;;;;;;8.68;6.00;;;;;;;13.81;98.62;100262.20;1730783;82;21457;-72
2022/10/24 08:29:47;;;;;;;12.28;8.00;;;;;;;13.91;98.51;100259.47;1731033;82;21106;-73
2022/10/24 08:32:14;;;;;;;10.98;7.42;;;;;;;14.01;98.29;100265.09;1730654;82;21012;-72
2022/10/24 08:34:41;;;;;;;16.23;10.30;;;;;;;14.10;98.04;100272.97;1731101;82;21004;-72
2022/10/24 08:37:08;;;;;;;11.00;8.43;;;;;;;14.17;97.88;100274.34;1730694;82;21040;-72
2022/10/24 08:39:37;;;;;;;10.75;7.47;;;;;;;14.25;97.76;100274.31;1731095;82;21406;-72
2022/10/24 08:42:09;;;;;;;8.60;5.97;;;;;;;14.33;97.46;100274.34;1730607;82;21454;-72
2022/10/24 08:44:40;;;;;;;12.80;6.05;;;;;;;14.40;97.27;100277.05;1710868;82;21059;-72
2022/10/24 08:47:32;;;;;;;10.28;5.45;;;;;;;14.46;97.10;100280.18;1731008;82;21064;-72
2022/10/24 08:50:29;;;;;;;18.62;12.13;;;;;;;14.51;96.91;100278.14;1730906;82;21068;-72
2022/10/24 08:53:12;;;;;;;12.75;9.40;;;;;;;14.58;96.71;100274.75;1730825;82;21270;-72
2022/10/24 08:55:50;;;;;;;12.43;8.03;;;;;;;14.68;96.74;100271.96;1717901;82;21152;-73
2022/10/24 08:58:27;;;;;;;10.50;7.67;;;;;;;14.87;96.87;100270.93;1730916;82;21032;-72
2022/10/24 09:00:59;;;;;;;7.92;5.78;;;;;;;15.17;96.60;100276.24;1730850;82;20985;-73
2022/10/24 09:03:40;;;;;;;7.78;4.03;;;;;;;15.17;96.60;100276.24;1730952;82;21446;-73
2022/10/24 09:06:25;;;;;;;4.97;3.60;;;;;;;15.43;96.26;100260.66;1730929;82;21461;-72
2022/10/24 09:08:57;;;;;;;8.40;3.50;;;;;;;15.66;95.65;100261.46;1730823;82;21977;-73
2022/10/24 09:11:53;;;;;;;7.28;4.22;;;;;;;15.66;95.65;100261.46;1730665;82;21020;-72
2022/10/24 09:14:37;;;;;;;6.78;4.03;;;;;;;15.77;95.54;100262.17;1731021;82;20985;-78
2022/10/24 09:17:21;;;;;;;8.15;3.92;;;;;;;15.82;94.85;100260.07;1730932;82;20993;-72
2022/10/24 09:19:59;;;;;;;8.60;3.98;;;;;;;15.83;94.35;100262.63;1731071;82;21386;-72
2022/10/24 09:22:29;;;;;;;7.80;3.70;;;;;;;16.02;94.27;100265.48;1730362;82;21145;-72
2022/10/24 09:25:10;;;;;;;6.30;3.40;;;;;;;16.27;94.41;100270.09;1730996;82;21068;-73
2022/10/24 09:27:40;;;;;;;7.10;3.70;;;;;;;16.55;94.16;100272.31;1710267;82;22045;-72
2022/10/24 09:30:09;;;;;;;;;;;;;;;16.83;94.04;100262.98;1733743;82;22045;-72
2022/10/24 09:32:37;;;;;;;7.75;5.10;;;;;;;17.13;93.62;100271.19;1730753;82;20512;-72
2022/10/24 09:35:10;;;;;;;12.23;4.92;;;;;;;17.45;93.47;100262.88;1731111;82;21111;-72
2022/10/24 09:37:55;;;;;;;6.20;3.70;;;;;;;17.70;92.85;100266.86;1730289;82;21016;-72
2022/10/24 09:40:33;;;;;;;9.13;3.98;;;;;;;17.99;92.42;100268.02;1731225;82;21028;-73
2022/10/24 09:43:17;;;;;;;6.45;3.33;;;;;;;18.27;92.01;100269.56;1730733;82;21036;-78
2022/10/24 09:45:59;;;;;;;8.65;3.55;;;;;;;18.47;90.79;100269.46;1730890;82;21432;-72
2022/10/24 09:49:01;;;;;;;6.50;3.70;;;;;;;18.72;90.26;100266.71;1730888;82;21906;-73
2022/10/24 09:51:34;;;;;;;8.75;3.47;;;;;;;18.98;89.63;100269.77;1730813;82;21045;-73
2022/10/24 09:54:22;;;;;;;8.30;3.85;;;;;;;19.21;88.69;100269.40;1730810;82;21013;-78
2022/10/24 09:57:13;;;;;;;7.95;4.12;;;;;;;19.45;88.61;100263.53;1730738;82;21012;-74
2022/10/24 09:59:47;;;;;;;7.28;4.05;;;;;;;19.68;87.50;100259.16;1730911;82;20981;-72
2022/10/24 10:02:35;;;;;;;7.58;3.90;;;;;;;19.93;87.40;100255.44;1731104;82;21108;-72
2022/10/24 10:05:08;;;;;;;10.93;4.40;;;;;;;20.24;87.22;100255.66;1730798;82;21051;-73
2022/10/24 10:07:44;;;;;;;8.43;4.25;;;;;;;20.54;86.49;100251.05;1731144;82;21353;-73
2022/10/24 10:10:28;;;;;;;7.58;4.03;;;;;;;20.75;85.94;100255.09;1730810;82;21005;-73
2022/10/24 10:13:06;;;;;;;8.65;3.87;;;;;;;21.00;85.47;100255.25;1730561;82;21068;-73
2022/10/24 10:15:40;;;;;;;7.55;3.83;;;;;;;21.24;84.64;100250.20;1730907;82;21949;-72
2022/10/24 10:18:34;;;;;;;5.90;3.90;;;;;;;21.48;84.20;100252.16;1730514;82;20929;-72
2022/10/24 10:21:12;;;;;;;7.70;3.70;;;;;;;21.85;84.13;100252.15;1730842;82;21004;-73
2022/10/24 10:23:50;;;;;;;10.03;4.15;;;;;;;22.24;83.39;100249.17;1730740;82;21016;-72
2022/10/24 10:26:44;;;;;;;7.80;4.03;;;;;;;22.53;82.54;100256.41;1730868;82;21016;-73
2022/10/24 10:29:22;;;;;;;8.28;4.53;;;;;;;22.47;80.81;100257.34;1730779;82;21134;-72
2022/10/24 10:32:08;;;;;;;7.58;3.67;;;;;;;22.53;79.99;100260.42;1730790;82;21014;-73
2022/10/24 10:34:48;;;;;;;7.12;3.50;;;;;;;22.51;79.48;100261.91;1730868;82;20996;-73
2022/10/24 10:37:34;;;;;;;9.10;4.13;;;;;;;22.45;78.80;100253.11;1730591;82;21032;-72
2022/10/24 10:40:19;;;;;;;6.95;3.90;;;;;;;22.46;78.60;100250.28;1730915;82;21009;-72
2022/10/24 10:43:20;;;;;;;7.97;3.70;;;;;;;22.49;78.27;100249.17;1730767;81;21912;-72
2022/10/24 10:46:02;;;;;;;8.20;3.77;;;;;;;22.48;78.06;100247.50;1730744;82;21517;-72
2022/10/24 10:49:12;;;;;;;7.70;3.65;;;;;;;22.51;77.89;100245.88;1730872;82;21016;-73
2022/10/24 10:51:52;;;;;;;11.63;3.98;;;;;;;22.51;78.06;100243.70;1730771;82;21609;-73
2022/10/24 10:54:56;;;;;;;9.75;3.35;;;;;;;22.73;78.23;100245.29;1710993;82;21012;-72
2022/10/24 10:57:55;;;;;;;7.17;3.87;;;;;;;22.97;78.17;100243.56;1730290;82;22106;-72
2022/10/24 11:00:50;;;;;;;7.37;3.98;;;;;;;23.27;77.68;100240.73;1730739;82;20965;-73
2022/10/24 11:03:43;;;;;;;7.60;3.95;;;;;;;23.50;77.16;100239.06;1730856;82;20997;-73
2022/10/24 11:06:28;;;;;;;8.08;3.90;;;;;;;23.76;76.69;100236.66;1730975;82;21509;-72
2022/10/24 11:09:21;;;;;;;8.60;3.22;;;;;;;23.91;76.18;100233.84;1730851;82;20985;-73
2022/10/24 11:12:22;;;;;;;4.92;2.77;;;;;;;23.92;74.94;100233.37;1731138;82;21099;-73
2022/10/24 11:15:01;;;;;;;6.80;3.20;;;;;;;23.99;75.10;100229.93;1730681;82;21071;-73
2022/10/24 11:17:53;;;;;;;7.27;3.13;;;;;;;24.11;74.13;100226.59;1721049;82;20992;-73
2022/10/24 11:20:40;;;;;;;8.30;2.87;;;;;;;24.10;73.45;100232.91;1730854;82;20974;-72
2022/10/24 11:23:29;;;;;;;7.37;3.00;;;;;;;24.19;73.37;100229.84;1725141;82;21000;-72
2022/10/24 11:26:07;;;;;;;7.05;3.12;;;;;;;24.45;73.17;100236.72;1730809;82;21127;-72
2022/10/24 11:28:54;;;;;;;8.20;2.72;;;;;;;24.77;72.96;100227.32;1730742;82;21501;-72
2022/10/24 11:31:33;;;;;;;6.47;3.25;;;;;;;24.99;72.08;100224.67;1730850;82;21011;-72
2022/10/24 11:34:31;;;;;;;9.57;3.30;;;;;;;25.15;71.43;100220.83;1732433;82;20985;-72
2022/10/24 11:37:16;;;;;;;8.93;2.67;;;;;;;25.32;71.29;100215.08;1730878;82;20993;-72
2022/10/24 11:40:00;;;;;;;8.33;3.08;;;;;;;25.55;70.37;100207.34;1730873;82;21988;-72
2022/10/24 11:42:59;;;;;;;7.85;2.62;;;;;;;25.66;69.93;100210.27;1730700;82;21024;-73
2022/10/24 11:45:53;;;;;;;7.10;2.97;;;;;;;25.43;68.72;100212.14;1730962;82;21009;-72
2022/10/24 11:48:31;;;;;;;7.65;2.70;;;;;;;25.33;68.76;100200.66;1730619;82;21501;-72
2022/10/24 11:51:13;;;;;;;6.72;2.72;;;;;;;25.30;68.70;100195.14;1731175;82;21045;-72
2022/10/24 11:54:01;;;;;;;4.20;2.30;;;;;;;25.20;68.21;100190.36;1730685;82;21131;-73